createdAt,value
2022-08-24T00:02:05.235Z,45.20
2022-08-24T00:04:33.179Z,44.77
2022-08-24T00:07:04.032Z,45.64
2022-08-24T00:09:33.284Z,46.12
2022-08-24T00:12:01.859Z,46.30
2022-08-24T00:14:29.551Z,46.22
2022-08-24T00:16:58.828Z,45.74
2022-08-24T00:19:27.215Z,46.22
2022-08-24T00:21:56.180Z,46.23
2022-08-24T00:24:23.629Z,45.99
2022-08-24T00:26:51.032Z,45.87
2022-08-24T00:29:20.824Z,46.38
2022-08-24T00:31:49.691Z,46.17
2022-08-24T00:34:17.891Z,46.31
2022-08-24T00:36:46.403Z,46.19
2022-08-24T00:39:14.316Z,45.99
2022-08-24T00:41:48.481Z,46.22
2022-08-24T00:44:18.956Z,46.73
2022-08-24T00:47:00.299Z,46.73
2022-08-24T00:50:04.761Z,46.70
2022-08-24T00:52:58.765Z,47.00
2022-08-24T00:55:38.962Z,46.81
2022-08-24T00:58:23.903Z,47.27
2022-08-24T01:01:03.887Z,47.18
2022-08-24T01:03:33.883Z,46.76
2022-08-24T01:06:01.903Z,46.93
2022-08-24T01:08:29.921Z,47.09
2022-08-24T01:11:06.351Z,47.46
2022-08-24T01:13:35.120Z,47.74
2022-08-24T01:16:08.198Z,47.61
2022-08-24T01:18:50.698Z,47.95
2022-08-24T01:22:24.972Z,47.73
2022-08-24T01:24:52.620Z,48.34
2022-08-24T01:27:26.362Z,48.04
2022-08-24T01:29:59.657Z,47.70
2022-08-24T01:32:30.280Z,47.87
2022-08-24T01:34:58.667Z,47.63
2022-08-24T01:37:26.143Z,48.09
2022-08-24T01:39:57.507Z,48.38
2022-08-24T01:42:29.268Z,47.99
2022-08-24T01:44:56.839Z,48.41
2022-08-24T01:47:24.145Z,48.73
2022-08-24T01:49:51.508Z,49.19
2022-08-24T01:52:25.989Z,48.23
2022-08-24T01:54:54.628Z,49.18
2022-08-24T01:57:27.346Z,49.57
2022-08-24T01:59:54.686Z,49.05
2022-08-24T02:02:31.381Z,49.02
2022-08-24T02:04:59.520Z,49.79
2022-08-24T02:07:27.251Z,49.69
2022-08-24T02:09:54.608Z,49.69
2022-08-24T02:12:23.920Z,49.81
2022-08-24T02:14:51.526Z,49.66
2022-08-24T02:17:19.124Z,49.82
2022-08-24T02:19:48.050Z,50.02
2022-08-24T02:22:15.987Z,50.43
2022-08-24T02:24:43.633Z,50.69
2022-08-24T02:27:11.668Z,50.66
2022-08-24T02:29:38.994Z,50.39
2022-08-24T02:32:07.189Z,50.66
2022-08-24T02:34:34.640Z,50.43
2022-08-24T02:37:01.975Z,51.65
2022-08-24T02:39:29.817Z,50.53
2022-08-24T02:41:58.292Z,51.13
2022-08-24T02:44:25.610Z,50.79
2022-08-24T02:46:53.042Z,51.27
2022-08-24T02:49:21.436Z,51.18
2022-08-24T02:51:48.805Z,51.40
2022-08-24T02:54:18.188Z,51.39
2022-08-24T02:56:47.719Z,51.31
2022-08-24T02:59:16.784Z,51.65
2022-08-24T03:01:44.988Z,51.27
2022-08-24T03:04:13.016Z,51.90
2022-08-24T03:06:40.680Z,51.44
2022-08-24T03:09:08.938Z,51.31
2022-08-24T03:11:36.749Z,51.71
2022-08-24T03:14:04.808Z,51.59
2022-08-24T03:16:32.637Z,52.17
2022-08-24T03:19:01.156Z,51.80
2022-08-24T03:21:28.736Z,52.14
2022-08-24T03:23:56.400Z,51.91
2022-08-24T03:26:23.999Z,52.17
2022-08-24T03:28:52.306Z,52.61
2022-08-24T03:31:20.060Z,52.28
2022-08-24T03:33:47.748Z,52.52
2022-08-24T03:36:15.380Z,52.15
2022-08-24T03:38:43.378Z,52.72
2022-08-24T03:41:11.825Z,52.91
2022-08-24T03:43:47.236Z,51.82
2022-08-24T03:46:36.189Z,52.58
2022-08-24T03:49:10.095Z,52.24
2022-08-24T03:51:39.004Z,52.48
2022-08-24T03:54:10.112Z,52.46
2022-08-24T03:56:38.223Z,52.56
2022-08-24T03:59:08.023Z,52.41
2022-08-24T04:01:35.399Z,52.77
2022-08-24T04:04:03.527Z,53.18
2022-08-24T04:06:31.277Z,52.52
2022-08-24T04:08:58.608Z,52.83
2022-08-24T04:11:29.526Z,53.49
2022-08-24T04:13:59.159Z,53.78
2022-08-24T04:16:29.025Z,53.48
2022-08-24T04:19:00.097Z,53.29
2022-08-24T04:21:35.465Z,53.29
2022-08-24T04:24:09.340Z,53.08
2022-08-24T04:26:45.743Z,53.17
2022-08-24T04:29:19.437Z,53.86
2022-08-24T04:31:48.464Z,54.17
2022-08-24T04:34:18.479Z,53.97
2022-08-24T04:36:47.089Z,53.94
2022-08-24T04:39:15.099Z,54.82
2022-08-24T04:41:42.656Z,55.53
2022-08-24T04:44:10.121Z,54.84
2022-08-24T04:46:37.661Z,53.93
2022-08-24T04:49:05.225Z,54.33
2022-08-24T04:51:36.489Z,54.41
2022-08-24T04:54:06.386Z,54.89
2022-08-24T04:56:35.013Z,54.35
2022-08-24T04:59:05.562Z,55.45
2022-08-24T05:01:33.839Z,54.36
2022-08-24T05:04:02.679Z,55.17
2022-08-24T05:06:32.738Z,56.05
2022-08-24T05:09:02.367Z,55.49
2022-08-24T05:11:30.027Z,55.65
2022-08-24T05:13:59.181Z,55.22
2022-08-24T05:16:27.937Z,55.36
2022-08-24T05:18:56.726Z,55.55
2022-08-24T05:21:25.967Z,55.50
2022-08-24T05:23:53.342Z,55.45
2022-08-24T05:26:27.410Z,55.91
2022-08-24T05:29:02.349Z,55.71
2022-08-24T05:31:33.379Z,56.82
2022-08-24T05:34:02.504Z,55.71
2022-08-24T05:36:38.113Z,55.62
2022-08-24T05:39:12.454Z,56.04
2022-08-24T05:41:44.322Z,55.42
2022-08-24T05:44:15.692Z,55.62
2022-08-24T05:46:44.809Z,55.88
2022-08-24T05:49:12.889Z,55.44
2022-08-24T05:51:42.677Z,55.22
2022-08-24T05:54:14.497Z,55.96
2022-08-24T05:56:44.715Z,55.21
2022-08-24T05:59:13.852Z,54.68
2022-08-24T06:01:45.336Z,54.88
2022-08-24T06:04:13.640Z,54.63
2022-08-24T06:06:42.817Z,54.61
2022-08-24T06:09:12.095Z,54.54
2022-08-24T06:11:41.731Z,54.39
2022-08-24T06:14:18.352Z,54.07
2022-08-24T06:16:48.626Z,54.18
2022-08-24T06:19:19.162Z,54.10
2022-08-24T06:21:52.146Z,54.28
2022-08-24T06:24:44.664Z,53.77
2022-08-24T06:27:22.810Z,54.59
2022-08-24T06:30:12.297Z,54.62
2022-08-24T06:32:40.097Z,54.34
2022-08-24T06:35:08.170Z,54.17
2022-08-24T06:37:38.849Z,53.94
2022-08-24T06:40:07.482Z,53.85
2022-08-24T06:42:35.372Z,53.10
2022-08-24T06:45:03.502Z,53.06
2022-08-24T06:47:31.720Z,52.84
2022-08-24T06:50:00.316Z,53.03
2022-08-24T06:52:27.880Z,52.32
2022-08-24T06:54:56.157Z,52.79
2022-08-24T06:57:23.467Z,52.15
2022-08-24T06:59:54.329Z,51.85
2022-08-24T07:02:21.750Z,52.09
2022-08-24T07:04:49.266Z,52.00
2022-08-24T07:07:17.709Z,52.07
2022-08-24T07:09:45.529Z,51.40
2022-08-24T07:12:12.899Z,52.31
2022-08-24T07:14:40.400Z,52.14
2022-08-24T07:17:07.822Z,51.61
2022-08-24T07:19:35.183Z,51.25
2022-08-24T07:22:02.577Z,51.08
2022-08-24T07:24:30.728Z,51.30
2022-08-24T07:26:58.048Z,51.14
2022-08-24T07:29:46.432Z,50.34
2022-08-24T07:32:12.816Z,50.85
2022-08-24T07:34:40.345Z,50.59
2022-08-24T07:39:49.504Z,48.90
2022-08-24T07:42:26.931Z,48.59
2022-08-24T07:44:59.800Z,48.76
2022-08-24T07:47:38.613Z,49.00
2022-08-24T07:50:08.839Z,49.27
2022-08-24T07:52:36.200Z,49.72
2022-08-24T07:55:05.847Z,48.02
2022-08-24T07:57:34.208Z,48.58
2022-08-24T08:00:05.111Z,49.35
2022-08-24T08:02:35.113Z,49.37
2022-08-24T08:05:05.902Z,49.72
2022-08-24T08:07:33.264Z,49.15
2022-08-24T08:10:03.681Z,48.97
2022-08-24T08:12:30.957Z,48.40
2022-08-24T08:14:58.289Z,47.78
2022-08-24T08:17:25.862Z,47.39
2022-08-24T08:19:53.794Z,46.81
2022-08-24T08:22:39.979Z,46.70
2022-08-24T08:25:08.129Z,46.57
2022-08-24T08:27:36.327Z,45.99
2022-08-24T08:30:07.506Z,45.70
2022-08-24T08:32:34.825Z,45.62
2022-08-24T08:35:03.011Z,44.78
2022-08-24T08:37:31.291Z,43.98
2022-08-24T08:39:58.905Z,44.17
2022-08-24T08:43:06.201Z,41.23
2022-08-24T08:46:24.147Z,41.14
2022-08-24T08:49:51.263Z,42.22
2022-08-24T08:53:21.536Z,42.59
2022-08-24T08:56:23.888Z,43.13
2022-08-24T08:59:22.055Z,43.16
2022-08-24T09:02:33.414Z,41.77
2022-08-24T09:05:58.982Z,40.92
2022-08-24T09:09:10.596Z,40.93
2022-08-24T09:12:25.305Z,41.55
2022-08-24T09:15:40.048Z,40.85
2022-08-24T09:18:50.630Z,40.88
2022-08-24T09:22:09.565Z,43.09
2022-08-24T09:25:05.395Z,43.10
2022-08-24T09:28:21.931Z,43.80
2022-08-24T09:31:54.248Z,42.59
2022-08-24T09:34:36.889Z,40.63
2022-08-24T09:37:10.002Z,39.95
2022-08-24T09:40:23.896Z,39.87
2022-08-24T09:44:10.560Z,39.37
2022-08-24T09:47:38.238Z,38.69
2022-08-24T09:51:04.646Z,39.18
2022-08-24T09:54:27.007Z,37.62
2022-08-24T09:58:06.718Z,37.89
2022-08-24T10:01:00.863Z,38.63
2022-08-24T10:04:04.017Z,37.83
2022-08-24T10:07:24.926Z,37.39
2022-08-24T10:10:59.445Z,37.28
2022-08-24T10:14:19.177Z,37.37
2022-08-24T10:17:28.856Z,36.61
2022-08-24T10:20:29.472Z,36.07
2022-08-24T10:23:38.115Z,37.26
2022-08-24T10:27:24.712Z,36.55
2022-08-24T10:30:40.111Z,36.18
2022-08-24T10:33:57.640Z,35.53
2022-08-24T10:36:54.213Z,34.92
2022-08-24T10:40:34.277Z,35.73
2022-08-24T10:43:56.486Z,33.34
2022-08-24T10:46:57.979Z,30.00
2022-08-24T10:49:37.224Z,28.97
2022-08-24T10:53:04.350Z,30.30
2022-08-24T10:55:35.540Z,31.12
2022-08-24T10:59:03.862Z,32.50
2022-08-24T11:01:39.501Z,32.32
2022-08-24T11:04:25.411Z,32.43
2022-08-24T11:07:21.780Z,31.83
2022-08-24T11:09:59.982Z,30.09
2022-08-24T11:12:42.585Z,30.36
2022-08-24T11:15:18.837Z,29.78
2022-08-24T11:18:04.130Z,30.62
2022-08-24T11:20:48.324Z,31.20
2022-08-24T11:23:30.985Z,29.54
2022-08-24T11:26:22.149Z,30.19
2022-08-24T11:29:04.274Z,28.93
2022-08-24T11:31:50.102Z,28.73
2022-08-24T11:34:40.042Z,28.19
2022-08-24T11:37:15.920Z,27.85
2022-08-24T11:39:43.329Z,27.79
2022-08-24T11:43:07.556Z,27.39
2022-08-24T11:46:32.189Z,27.23
2022-08-24T11:49:32.976Z,27.18
2022-08-24T11:53:12.663Z,26.52
2022-08-24T11:56:36.732Z,26.10
2022-08-24T11:59:29.853Z,26.31
2022-08-24T12:02:12.972Z,26.01
2022-08-24T12:05:37.398Z,25.65
2022-08-24T12:08:35.017Z,25.58
2022-08-24T12:11:26.657Z,25.12
2022-08-24T12:14:19.421Z,25.97
2022-08-24T12:18:08.073Z,24.92
2022-08-24T12:20:49.654Z,24.28
2022-08-24T12:23:50.047Z,24.16
2022-08-24T12:26:27.173Z,25.61
2022-08-24T12:29:23.013Z,23.24
2022-08-24T12:32:20.474Z,22.50
2022-08-24T12:35:48.456Z,24.67
2022-08-24T12:38:29.443Z,23.88
2022-08-24T12:41:32.145Z,23.28
2022-08-24T12:44:16.082Z,24.08
2022-08-24T12:46:51.383Z,23.21
2022-08-24T12:49:51.362Z,23.19
2022-08-24T12:53:01.778Z,21.53
2022-08-24T12:56:24.298Z,21.97
2022-08-24T12:59:11.958Z,17.99
2022-08-24T13:01:58.346Z,17.21
2022-08-24T13:04:40.321Z,17.73
2022-08-24T13:07:40.496Z,17.67
2022-08-24T13:10:24.907Z,15.89
2022-08-24T13:13:19.661Z,16.41
2022-08-24T13:15:58.773Z,17.83
2022-08-24T13:19:09.745Z,17.22
2022-08-24T13:21:46.887Z,16.31
2022-08-24T13:24:29.741Z,15.42
2022-08-24T13:27:14.281Z,16.31
2022-08-24T13:30:04.910Z,15.55
2022-08-24T13:32:55.444Z,15.51
2022-08-24T13:35:39.596Z,15.85
2022-08-24T13:38:57.753Z,16.52
2022-08-24T13:42:32.475Z,17.50
2022-08-24T13:45:59.948Z,17.87
2022-08-24T13:49:15.488Z,19.18
2022-08-24T13:51:56.161Z,18.41
2022-08-24T13:55:04.327Z,17.03
2022-08-24T13:58:10.981Z,15.99
2022-08-24T14:00:51.206Z,15.13
2022-08-24T14:03:24.296Z,15.87
2022-08-24T14:06:21.325Z,15.21
2022-08-24T14:09:53.279Z,14.10
2022-08-24T14:12:32.598Z,14.10
2022-08-24T14:16:28.729Z,13.86
2022-08-24T14:19:35.489Z,14.48
2022-08-24T14:22:32.858Z,14.40
2022-08-24T14:25:33.172Z,14.15
2022-08-24T14:28:00.274Z,15.14
2022-08-24T14:30:28.051Z,14.00
2022-08-24T14:33:00.758Z,13.96
2022-08-24T14:36:14.575Z,13.73
2022-08-24T14:39:05.003Z,13.56
2022-08-24T14:42:33.262Z,13.93
2022-08-24T14:45:49.505Z,14.23
2022-08-24T14:49:22.371Z,14.32
2022-08-24T14:52:30.604Z,13.36
2022-08-24T14:55:25.370Z,13.66
2022-08-24T14:58:29.213Z,13.49
2022-08-24T15:01:14.743Z,14.84
2022-08-24T15:04:51.071Z,14.42
2022-08-24T15:07:32.209Z,13.79
2022-08-24T15:10:14.914Z,13.37
2022-08-24T15:13:04.229Z,13.70
2022-08-24T15:16:08.049Z,13.86
2022-08-24T15:19:16.773Z,13.02
2022-08-24T15:22:13.574Z,13.37
2022-08-24T15:25:07.372Z,14.01
2022-08-24T15:28:07.827Z,13.10
2022-08-24T15:30:40.565Z,13.46
2022-08-24T15:33:19.641Z,12.57
2022-08-24T15:36:14.217Z,12.68
2022-08-24T15:38:44.258Z,12.73
2022-08-24T15:41:35.819Z,23.38
2022-08-24T15:44:33.273Z,14.77
2022-08-24T15:47:32.642Z,14.42
2022-08-24T15:50:20.412Z,15.80
2022-08-24T15:53:33.458Z,14.92
2022-08-24T15:56:20.407Z,16.33
2022-08-24T15:58:50.013Z,16.33
2022-08-24T16:01:35.902Z,16.86
2022-08-24T16:04:11.499Z,15.45
2022-08-24T16:06:48.133Z,15.68
2022-08-24T16:09:21.237Z,16.17
2022-08-24T16:12:12.770Z,15.10
2022-08-24T16:15:17.824Z,16.39
2022-08-24T16:17:56.728Z,15.21
2022-08-24T16:20:23.786Z,16.08
2022-08-24T16:23:01.680Z,16.43
2022-08-24T16:25:41.008Z,16.13
2022-08-24T16:28:36.632Z,15.58
2022-08-24T16:31:08.175Z,16.31
2022-08-24T16:33:48.335Z,15.74
2022-08-24T16:36:20.403Z,16.62
2022-08-24T16:38:51.607Z,16.99
2022-08-24T16:41:24.393Z,16.53
2022-08-24T16:43:52.219Z,17.05
2022-08-24T16:46:24.015Z,16.87
2022-08-24T16:48:54.178Z,17.62
2022-08-24T16:51:24.619Z,17.25
2022-08-24T16:53:54.525Z,17.05
2022-08-24T16:56:24.944Z,16.19
2022-08-24T16:58:52.658Z,17.70
2022-08-24T17:01:20.307Z,18.36
2022-08-24T17:03:47.690Z,18.08
2022-08-24T17:06:18.912Z,18.00
2022-08-24T17:08:48.577Z,18.05
2022-08-24T17:11:16.872Z,18.09
2022-08-24T17:13:49.979Z,19.22
2022-08-24T17:16:21.022Z,19.24
2022-08-24T17:18:48.692Z,19.38
2022-08-24T17:21:16.657Z,19.70
2022-08-24T17:23:44.436Z,19.53
2022-08-24T17:26:21.005Z,20.09
2022-08-24T17:28:55.286Z,20.28
2022-08-24T17:31:24.805Z,20.70
2022-08-24T17:33:53.199Z,20.89
2022-08-24T17:36:26.045Z,20.88
2022-08-24T17:39:00.496Z,20.75
2022-08-24T17:41:28.094Z,21.64
2022-08-24T17:43:57.230Z,21.63
2022-08-24T17:46:24.821Z,21.85
2022-08-24T17:48:52.398Z,21.60
2022-08-24T17:51:19.932Z,22.18
2022-08-24T17:53:47.556Z,22.97
2022-08-24T17:56:17.148Z,22.16
2022-08-24T17:59:04.477Z,22.82
2022-08-24T18:01:33.263Z,22.82
2022-08-24T18:04:00.571Z,22.95
2022-08-24T18:06:28.803Z,23.46
2022-08-24T18:08:58.272Z,23.27
2022-08-24T18:11:26.354Z,23.72
2022-08-24T18:13:54.628Z,24.36
2022-08-24T18:16:29.273Z,24.53
2022-08-24T18:18:56.826Z,24.28
2022-08-24T18:21:24.222Z,24.61
2022-08-24T18:23:52.763Z,24.82
2022-08-24T18:26:28.064Z,25.07
2022-08-24T18:29:03.181Z,25.61
2022-08-24T18:31:32.273Z,32.17
2022-08-24T18:33:59.699Z,27.23
2022-08-24T18:36:27.532Z,27.08
2022-08-24T18:38:54.849Z,27.04
2022-08-24T18:41:22.251Z,26.97
2022-08-24T18:43:50.400Z,27.08
2022-08-24T18:46:17.771Z,28.59
2022-08-24T18:48:45.163Z,27.81
2022-08-24T18:51:18.517Z,27.82
2022-08-24T18:53:46.337Z,28.08
2022-08-24T18:56:14.048Z,28.41
2022-08-24T18:58:41.528Z,28.25
2022-08-24T19:01:10.163Z,28.65
2022-08-24T19:03:37.884Z,28.70
2022-08-24T19:06:06.224Z,28.61
2022-08-24T19:08:33.729Z,29.39
2022-08-24T19:11:01.197Z,29.14
2022-08-24T19:13:29.642Z,29.90
2022-08-24T19:15:58.104Z,29.39
2022-08-24T19:18:25.634Z,29.52
2022-08-24T19:20:58.448Z,29.84
2022-08-24T19:23:37.252Z,30.01
2022-08-24T19:26:05.286Z,30.32
2022-08-24T19:28:33.234Z,30.29
2022-08-24T19:31:07.480Z,30.71
2022-08-24T19:33:42.539Z,30.60
2022-08-24T19:36:11.238Z,30.87
2022-08-24T19:38:38.620Z,31.22
2022-08-24T19:41:11.169Z,31.15
2022-08-24T19:44:00.893Z,31.75
2022-08-24T19:46:28.586Z,31.25
2022-08-24T19:48:56.143Z,31.97
2022-08-24T19:51:23.723Z,32.14
2022-08-24T19:53:51.031Z,32.39
2022-08-24T19:56:18.680Z,32.30
2022-08-24T19:58:53.444Z,32.56
2022-08-24T20:01:29.855Z,32.87
2022-08-24T20:03:57.416Z,33.18
2022-08-24T20:06:25.905Z,32.86
2022-08-24T20:08:53.807Z,34.53
2022-08-24T20:11:24.936Z,36.15
2022-08-24T20:13:53.871Z,34.25
2022-08-24T20:16:26.548Z,34.38
2022-08-24T20:18:54.231Z,35.48
2022-08-24T20:21:26.049Z,35.89
2022-08-24T20:23:55.561Z,36.50
2022-08-24T20:26:25.226Z,37.50
2022-08-24T20:28:55.592Z,37.79
2022-08-24T20:31:28.648Z,38.12
2022-08-24T20:33:57.267Z,38.46
2022-08-24T20:36:38.708Z,38.54
2022-08-24T20:39:13.221Z,39.10
2022-08-24T20:41:40.656Z,37.77
2022-08-24T20:44:11.736Z,38.08
2022-08-24T20:46:41.612Z,37.94
2022-08-24T20:49:16.915Z,38.29
2022-08-24T20:51:46.779Z,37.94
2022-08-24T20:54:14.826Z,38.30
2022-08-24T20:56:45.083Z,39.03
2022-08-24T20:59:14.791Z,38.65
2022-08-24T21:01:42.858Z,38.60
2022-08-24T21:04:10.870Z,38.90
2022-08-24T21:06:44.157Z,38.76
2022-08-24T21:09:14.298Z,38.97
2022-08-24T21:11:43.461Z,39.43
2022-08-24T21:14:10.826Z,39.64
2022-08-24T21:16:42.421Z,39.44
2022-08-24T21:19:17.813Z,39.99
2022-08-24T21:21:47.318Z,40.08
2022-08-24T21:24:15.872Z,40.04
2022-08-24T21:26:43.465Z,39.81
2022-08-24T21:29:11.390Z,40.21
2022-08-24T21:31:39.721Z,40.63
2022-08-24T21:34:26.674Z,40.35
2022-08-24T21:36:55.456Z,40.86
2022-08-24T21:39:22.763Z,41.06
2022-08-24T21:41:50.125Z,41.45
2022-08-24T21:44:17.426Z,41.49
2022-08-24T21:46:45.426Z,41.68
2022-08-24T21:49:13.701Z,41.73
2022-08-24T21:51:41.156Z,42.19
2022-08-24T21:54:09.500Z,41.54
2022-08-24T21:56:36.846Z,42.09
2022-08-24T21:59:04.254Z,42.58
2022-08-24T22:01:32.536Z,42.54
2022-08-24T22:04:01.539Z,42.59
2022-08-24T22:06:31.537Z,42.92
2022-08-24T22:09:00.302Z,42.74
2022-08-24T22:11:28.437Z,43.17
2022-08-24T22:13:56.204Z,43.33
2022-08-24T22:16:24.440Z,43.27
2022-08-24T22:18:52.968Z,43.48
2022-08-24T22:21:29.330Z,43.35
2022-08-24T22:23:59.836Z,43.69
2022-08-24T22:26:30.427Z,43.70
2022-08-24T22:28:59.136Z,43.87
2022-08-24T22:31:33.080Z,43.77
2022-08-24T22:34:07.189Z,43.89
2022-08-24T22:36:35.455Z,44.70
2022-08-24T22:39:05.551Z,44.78
2022-08-24T22:41:33.360Z,44.47
2022-08-24T22:44:19.509Z,44.67
2022-08-24T22:46:54.295Z,45.16
2022-08-24T22:49:31.938Z,45.34
2022-08-24T22:51:59.733Z,45.65
2022-08-24T22:54:27.806Z,45.48
2022-08-24T22:56:57.125Z,45.39
2022-08-24T22:59:51.066Z,45.95
2022-08-24T23:02:19.777Z,46.19
2022-08-24T23:04:52.131Z,46.16
2022-08-24T23:07:20.484Z,46.40
2022-08-24T23:09:48.044Z,46.08
2022-08-24T23:12:22.821Z,46.68
2022-08-24T23:14:55.394Z,47.01
2022-08-24T23:17:23.219Z,47.32
2022-08-24T23:20:00.528Z,47.09
2022-08-24T23:22:40.312Z,47.37
2022-08-24T23:25:13.019Z,47.04
2022-08-24T23:27:44.509Z,47.09
2022-08-24T23:30:14.560Z,47.03
2022-08-24T23:32:44.876Z,47.54
2022-08-24T23:35:12.171Z,48.05
2022-08-24T23:37:39.499Z,47.65
2022-08-24T23:40:08.190Z,48.22
2022-08-24T23:42:35.587Z,47.83
2022-08-24T23:45:03.299Z,47.95
2022-08-24T23:47:35.766Z,49.04
2022-08-24T23:50:06.781Z,48.29
2022-08-24T23:52:39.245Z,48.48
2022-08-24T23:55:20.201Z,48.93
2022-08-24T23:57:52.928Z,48.99
